createdAt,value
2022-11-13T00:02:44.959Z,20.48
2022-11-13T00:08:07.982Z,21.13
2022-11-13T00:13:30.702Z,21.75
2022-11-13T00:18:55.340Z,24.45
2022-11-13T00:24:17.843Z,21.92
2022-11-13T00:29:39.298Z,23.83
2022-11-13T00:35:00.573Z,26.48
2022-11-13T00:46:57.247Z,23.57
2022-11-13T00:52:19.095Z,25.92
2022-11-13T00:57:42.104Z,25.52
2022-11-13T01:03:03.609Z,21.77
2022-11-13T01:08:25.303Z,25.52
2022-11-13T01:13:50.129Z,23.25
2022-11-13T01:19:11.365Z,22.88
2022-11-13T01:24:32.640Z,26.75
2022-11-13T01:29:55.488Z,27.58
2022-11-13T01:35:17.400Z,25.58
2022-11-13T01:40:46.393Z,27.08
2022-11-13T01:46:17.105Z,27.48
2022-11-13T01:51:42.002Z,22.75
2022-11-13T01:57:05.350Z,24.33
2022-11-13T02:02:27.990Z,25.52
2022-11-13T02:07:50.215Z,26.05
2022-11-13T02:13:13.524Z,25.45
2022-11-13T02:18:38.558Z,26.33
2022-11-13T02:24:14.792Z,25.63
2022-11-13T02:29:36.164Z,25.63
2022-11-13T02:34:57.214Z,26.55
2022-11-13T02:40:20.258Z,24.85
2022-11-13T02:45:41.708Z,27.25
2022-11-13T02:51:03.228Z,25.52
2022-11-13T02:56:26.279Z,28.65
2022-11-13T03:01:48.066Z,27.38
2022-11-13T03:07:09.766Z,26.85
2022-11-13T03:12:32.253Z,27.92
2022-11-13T03:17:53.409Z,30.10
2022-11-13T03:23:14.774Z,26.85
2022-11-13T03:28:38.060Z,27.48
2022-11-13T03:34:00.170Z,30.15
2022-11-13T03:39:21.641Z,41.95
2022-11-13T03:44:44.490Z,32.00
2022-11-13T03:50:06.473Z,30.90
2022-11-13T03:55:27.852Z,29.35
2022-11-13T04:00:50.637Z,25.30
2022-11-13T04:06:11.944Z,27.02
2022-11-13T04:11:33.138Z,30.95
2022-11-13T04:16:55.707Z,30.30
2022-11-13T04:22:16.949Z,26.75
2022-11-13T04:27:38.387Z,28.60
2022-11-13T04:33:01.155Z,29.25
2022-11-13T04:38:22.330Z,29.02
2022-11-13T04:43:43.773Z,29.02
2022-11-13T04:49:06.380Z,33.03
2022-11-13T04:54:29.013Z,27.45
2022-11-13T04:59:50.458Z,29.08
2022-11-13T05:05:13.085Z,29.55
2022-11-13T05:10:34.643Z,31.02
2022-11-13T05:16:01.519Z,28.13
2022-11-13T05:21:24.225Z,29.10
2022-11-13T05:26:45.480Z,30.08
2022-11-13T05:32:06.714Z,34.58
2022-11-13T05:37:30.140Z,35.33
2022-11-13T05:42:51.306Z,36.17
2022-11-13T05:48:14.100Z,32.95
2022-11-13T05:53:38.260Z,34.80
2022-11-13T05:59:01.460Z,40.33
2022-11-13T06:04:22.895Z,31.83
2022-11-13T06:09:48.466Z,37.75
2022-11-13T06:15:10.455Z,36.15
2022-11-13T06:20:31.989Z,29.67
2022-11-13T06:26:01.347Z,31.23
2022-11-13T06:31:24.837Z,29.67
2022-11-13T06:36:46.138Z,28.83
2022-11-13T06:42:08.664Z,33.78
2022-11-13T06:47:29.861Z,30.23
2022-11-13T06:52:51.209Z,29.17
2022-11-13T06:58:13.889Z,30.90
2022-11-13T07:03:35.922Z,30.35
2022-11-13T07:08:57.128Z,33.08
2022-11-13T07:14:19.682Z,30.80
2022-11-13T07:19:41.352Z,31.30
2022-11-13T07:25:02.493Z,28.35
2022-11-13T07:30:25.551Z,30.98
2022-11-13T07:35:46.714Z,34.15
2022-11-13T07:41:08.574Z,34.60
2022-11-13T07:46:31.415Z,32.90
2022-11-13T07:51:52.577Z,32.78
2022-11-13T07:57:14.709Z,31.88
2022-11-13T08:02:37.402Z,32.58
2022-11-13T08:07:58.565Z,35.85
2022-11-13T08:13:19.780Z,29.35
2022-11-13T08:18:42.635Z,31.38
2022-11-13T08:24:03.682Z,32.85
2022-11-13T08:29:25.215Z,38.13
2022-11-13T08:34:48.110Z,34.58
2022-11-13T08:40:10.670Z,35.92
2022-11-13T08:45:32.685Z,36.03
2022-11-13T08:50:56.743Z,34.67
2022-11-13T08:56:18.292Z,31.33
2022-11-13T09:01:39.433Z,32.97
2022-11-13T09:07:01.913Z,35.47
2022-11-13T09:12:23.528Z,32.20
2022-11-13T09:17:48.961Z,31.55
2022-11-13T09:23:11.751Z,38.78
2022-11-13T09:28:35.446Z,31.92
2022-11-13T09:33:56.725Z,33.78
2022-11-13T09:39:19.318Z,37.22
2022-11-13T09:44:44.417Z,39.42
2022-11-13T09:50:18.045Z,36.80
2022-11-13T09:55:49.759Z,44.33
2022-11-13T10:01:17.281Z,38.83
2022-11-13T10:07:12.565Z,37.42
2022-11-13T10:12:35.973Z,40.83
2022-11-13T10:18:04.039Z,45.40
2022-11-13T10:23:29.550Z,42.25
2022-11-13T10:28:59.852Z,39.67
2022-11-13T10:34:21.679Z,39.05
2022-11-13T10:39:44.506Z,39.05
2022-11-13T10:45:15.857Z,34.90
2022-11-13T10:50:37.288Z,34.65
2022-11-13T10:56:00.574Z,34.35
2022-11-13T11:01:27.545Z,39.33
2022-11-13T11:07:18.518Z,30.60
2022-11-13T11:12:31.452Z,32.08
2022-11-13T11:18:01.189Z,34.85
2022-11-13T11:23:28.350Z,29.67
2022-11-13T11:28:55.165Z,34.00
2022-11-13T11:34:23.252Z,36.38
2022-11-13T11:39:51.305Z,35.37
2022-11-13T11:45:17.924Z,36.50
2022-11-13T11:50:51.981Z,34.70
2022-11-13T11:56:28.505Z,38.35
2022-11-13T12:02:34.983Z,37.28
2022-11-13T12:08:14.027Z,32.72
2022-11-13T12:13:41.072Z,32.10
2022-11-13T12:19:09.048Z,33.05
2022-11-13T12:24:47.536Z,33.65
2022-11-13T12:30:17.516Z,30.75
2022-11-13T12:35:39.772Z,31.30
2022-11-13T12:41:10.709Z,28.05
2022-11-13T12:46:37.467Z,25.05
2022-11-13T12:52:00.408Z,23.13
2022-11-13T12:57:30.302Z,25.38
2022-11-13T13:02:59.894Z,24.65
2022-11-13T13:08:39.795Z,22.58
2022-11-13T13:14:25.039Z,26.00
2022-11-13T13:19:46.552Z,24.15
2022-11-13T13:25:23.786Z,24.92
2022-11-13T13:30:55.291Z,24.13
2022-11-13T13:36:30.691Z,22.35
2022-11-13T13:42:18.202Z,22.45
2022-11-13T13:47:44.397Z,24.50
2022-11-13T13:53:06.544Z,25.00
2022-11-13T13:58:31.393Z,22.42
2022-11-13T14:04:06.665Z,22.48
2022-11-13T14:09:29.657Z,22.73
2022-11-13T14:14:50.915Z,22.17
2022-11-13T14:20:14.420Z,22.73
2022-11-13T14:25:36.027Z,25.35
2022-11-13T14:31:00.855Z,27.00
2022-11-13T14:36:31.566Z,28.00
2022-11-13T14:41:56.034Z,30.45
2022-11-13T14:47:27.327Z,38.85
2022-11-13T14:52:59.732Z,34.00
2022-11-13T14:58:28.750Z,38.03
2022-11-13T15:03:52.152Z,36.30
2022-11-13T15:09:18.666Z,38.92
2022-11-13T15:14:42.299Z,37.47
2022-11-13T15:20:09.298Z,35.70
2022-11-13T15:25:32.065Z,37.22
2022-11-13T15:30:53.459Z,35.30
2022-11-13T15:36:15.026Z,27.90
2022-11-13T15:41:38.094Z,25.27
2022-11-13T15:46:59.239Z,23.75
2022-11-13T15:52:21.069Z,22.55
2022-11-13T15:57:44.080Z,20.77
2022-11-13T16:03:11.396Z,18.17
2022-11-13T16:08:32.847Z,14.55
2022-11-13T16:13:55.405Z,16.40
2022-11-13T16:19:23.505Z,12.13
2022-11-13T16:24:45.234Z,12.40
2022-11-13T16:30:14.760Z,12.50
2022-11-13T16:35:37.079Z,15.95
2022-11-13T16:40:58.819Z,12.55
2022-11-13T16:46:27.633Z,12.25
2022-11-13T16:51:49.432Z,11.68
2022-11-13T16:57:13.849Z,12.40
2022-11-13T17:02:36.731Z,9.93
2022-11-13T17:08:01.788Z,9.85
2022-11-13T17:13:23.649Z,10.65
2022-11-13T17:19:16.330Z,9.65
2022-11-13T17:24:38.164Z,12.82
2022-11-13T17:30:00.939Z,10.20
2022-11-13T17:35:23.575Z,8.80
2022-11-13T17:40:45.002Z,8.55
2022-11-13T17:46:07.405Z,10.68
2022-11-13T17:51:30.477Z,10.43
2022-11-13T17:56:51.943Z,8.18
2022-11-13T18:02:13.322Z,11.13
2022-11-13T18:07:36.161Z,11.13
2022-11-13T18:12:57.248Z,10.90
2022-11-13T18:18:18.700Z,9.93
2022-11-13T18:23:42.597Z,12.43
2022-11-13T18:29:04.918Z,10.90
2022-11-13T18:34:28.437Z,10.85
2022-11-13T18:39:51.680Z,10.50
2022-11-13T18:45:16.223Z,11.95
2022-11-13T18:50:37.779Z,10.50
2022-11-13T18:56:02.073Z,15.32
2022-11-13T19:01:25.752Z,13.32
2022-11-13T19:06:47.410Z,13.80
2022-11-13T19:12:10.295Z,12.23
2022-11-13T19:17:31.902Z,13.85
2022-11-13T19:22:53.300Z,13.80
2022-11-13T19:28:17.329Z,14.73
2022-11-13T19:33:42.267Z,16.50
2022-11-13T19:39:04.317Z,17.33
2022-11-13T19:44:27.778Z,16.05
2022-11-13T19:49:49.559Z,23.10
2022-11-13T19:55:13.198Z,23.45
2022-11-13T20:00:36.971Z,22.33
2022-11-13T20:05:59.326Z,22.40
2022-11-13T20:11:20.892Z,22.75
2022-11-13T20:16:44.001Z,27.08
2022-11-13T20:22:05.265Z,26.67
2022-11-13T20:27:26.597Z,28.13
2022-11-13T20:32:52.560Z,29.95
2022-11-13T20:38:17.669Z,28.05
2022-11-13T20:43:38.926Z,28.98
2022-11-13T20:49:02.139Z,28.95
2022-11-13T20:54:23.849Z,33.40
2022-11-13T20:59:45.376Z,32.53
2022-11-13T21:05:08.756Z,30.08
2022-11-13T21:10:30.227Z,30.48
2022-11-13T21:15:56.000Z,32.92
2022-11-13T21:21:20.592Z,31.55
2022-11-13T21:26:41.952Z,31.13
2022-11-13T21:32:03.418Z,31.65
2022-11-13T21:37:26.634Z,30.77
2022-11-13T21:42:48.080Z,32.25
2022-11-13T21:48:09.558Z,33.10
2022-11-13T21:53:32.288Z,30.25
2022-11-13T21:58:55.737Z,35.28
2022-11-13T22:04:17.372Z,33.90
2022-11-13T22:09:40.185Z,34.08
2022-11-13T22:15:01.805Z,35.63
2022-11-13T22:20:23.079Z,37.63
2022-11-13T22:25:46.035Z,36.50
2022-11-13T22:31:09.345Z,39.65
2022-11-13T22:36:31.857Z,41.40
2022-11-13T22:41:54.692Z,37.20
2022-11-13T22:47:15.932Z,34.45
2022-11-13T22:52:37.140Z,37.05
2022-11-13T22:58:00.705Z,38.13
2022-11-13T23:03:22.056Z,38.30
2022-11-13T23:08:43.951Z,36.80
2022-11-13T23:14:09.148Z,38.95
2022-11-13T23:19:30.402Z,38.30
2022-11-13T23:24:51.563Z,41.75
2022-11-13T23:30:15.466Z,37.80
2022-11-13T23:35:36.953Z,39.25
2022-11-13T23:40:59.778Z,38.67
2022-11-13T23:46:22.263Z,43.08
2022-11-13T23:51:43.502Z,39.35
2022-11-13T23:57:04.805Z,43.85
